sensor_id;sensor_type;location;lat;lon;timestamp;P1;durP1;ratioP1;P2;durP2;ratioP2
72060;SDS011;59925;52.136;5.420;2023-09-18T00:00:17;15.32;;;10.65;;
72060;SDS011;59925;52.136;5.420;2023-09-18T00:02:44;17.25;;;9.20;;
72060;SDS011;59925;52.136;5.420;2023-09-18T00:05:11;16.20;;;9.67;;
72060;SDS011;59925;52.136;5.420;2023-09-18T00:07:42;13.63;;;8.95;;
72060;SDS011;59925;52.136;5.420;2023-09-18T00:10:12;14.98;;;10.18;;
72060;SDS011;59925;52.136;5.420;2023-09-18T00:12:40;16.35;;;10.20;;
72060;SDS011;59925;52.136;5.420;2023-09-18T00:15:07;13.95;;;10.55;;
72060;SDS011;59925;52.136;5.420;2023-09-18T00:17:35;15.07;;;10.90;;
72060;SDS011;59925;52.136;5.420;2023-09-18T00:20:02;14.55;;;10.15;;
72060;SDS011;59925;52.136;5.420;2023-09-18T00:22:33;15.27;;;9.18;;
72060;SDS011;59925;52.136;5.420;2023-09-18T00:25:00;13.93;;;10.38;;
72060;SDS011;59925;52.136;5.420;2023-09-18T00:27:27;18.92;;;10.50;;
72060;SDS011;59925;52.136;5.420;2023-09-18T00:29:54;16.47;;;10.83;;
72060;SDS011;59925;52.136;5.420;2023-09-18T00:32:21;14.30;;;9.80;;
72060;SDS011;59925;52.136;5.420;2023-09-18T00:34:47;15.10;;;10.07;;
72060;SDS011;59925;52.136;5.420;2023-09-18T00:37:14;17.50;;;8.95;;
72060;SDS011;59925;52.136;5.420;2023-09-18T00:39:41;14.80;;;10.18;;
72060;SDS011;59925;52.136;5.420;2023-09-18T00:42:08;14.57;;;9.33;;
72060;SDS011;59925;52.136;5.420;2023-09-18T00:44:40;12.95;;;9.57;;
72060;SDS011;59925;52.136;5.420;2023-09-18T00:47:09;12.40;;;9.57;;
72060;SDS011;59925;52.136;5.420;2023-09-18T00:49:37;12.82;;;9.30;;
72060;SDS011;59925;52.136;5.420;2023-09-18T00:52:06;12.57;;;9.55;;
72060;SDS011;59925;52.136;5.420;2023-09-18T00:54:34;9.93;;;7.27;;
72060;SDS011;59925;52.136;5.420;2023-09-18T00:57:02;12.65;;;9.32;;
72060;SDS011;59925;52.136;5.420;2023-09-18T00:59:30;12.25;;;9.15;;
72060;SDS011;59925;52.136;5.420;2023-09-18T01:01:59;12.13;;;9.40;;
72060;SDS011;59925;52.136;5.420;2023-09-18T01:04:26;13.60;;;9.05;;
72060;SDS011;59925;52.136;5.420;2023-09-18T01:06:55;12.87;;;8.10;;
72060;SDS011;59925;52.136;5.420;2023-09-18T01:09:22;12.60;;;9.68;;
72060;SDS011;59925;52.136;5.420;2023-09-18T01:14:58;11.80;;;8.40;;
72060;SDS011;59925;52.136;5.420;2023-09-18T01:17:37;19.35;;;9.57;;
72060;SDS011;59925;52.136;5.420;2023-09-18T01:20:10;11.03;;;8.40;;
72060;SDS011;59925;52.136;5.420;2023-09-18T01:22:38;12.18;;;8.90;;
72060;SDS011;59925;52.136;5.420;2023-09-18T01:25:05;12.98;;;8.38;;
72060;SDS011;59925;52.136;5.420;2023-09-18T01:27:33;13.43;;;9.55;;
72060;SDS011;59925;52.136;5.420;2023-09-18T01:30:00;14.63;;;9.60;;
72060;SDS011;59925;52.136;5.420;2023-09-18T01:32:27;14.90;;;9.90;;
72060;SDS011;59925;52.136;5.420;2023-09-18T01:34:57;13.88;;;9.38;;
72060;SDS011;59925;52.136;5.420;2023-09-18T01:37:27;16.90;;;9.88;;
72060;SDS011;59925;52.136;5.420;2023-09-18T01:39:55;17.77;;;10.70;;
72060;SDS011;59925;52.136;5.420;2023-09-18T01:42:26;17.48;;;9.63;;
72060;SDS011;59925;52.136;5.420;2023-09-18T01:44:54;15.63;;;11.50;;
72060;SDS011;59925;52.136;5.420;2023-09-18T01:47:21;16.67;;;10.95;;
72060;SDS011;59925;52.136;5.420;2023-09-18T01:49:53;16.90;;;10.18;;
72060;SDS011;59925;52.136;5.420;2023-09-18T01:52:20;12.15;;;9.50;;
72060;SDS011;59925;52.136;5.420;2023-09-18T01:54:46;13.00;;;9.43;;
72060;SDS011;59925;52.136;5.420;2023-09-18T01:57:13;18.17;;;10.60;;
72060;SDS011;59925;52.136;5.420;2023-09-18T01:59:40;14.73;;;10.90;;
72060;SDS011;59925;52.136;5.420;2023-09-18T02:02:08;15.40;;;11.18;;
72060;SDS011;59925;52.136;5.420;2023-09-18T02:04:36;16.15;;;10.90;;
72060;SDS011;59925;52.136;5.420;2023-09-18T02:07:23;14.70;;;10.48;;
72060;SDS011;59925;52.136;5.420;2023-09-18T02:09:49;15.30;;;10.23;;
72060;SDS011;59925;52.136;5.420;2023-09-18T02:12:16;14.98;;;10.88;;
72060;SDS011;59925;52.136;5.420;2023-09-18T02:14:44;20.13;;;12.90;;
72060;SDS011;59925;52.136;5.420;2023-09-18T02:17:11;16.23;;;12.15;;
72060;SDS011;59925;52.136;5.420;2023-09-18T02:19:38;19.73;;;13.18;;
72060;SDS011;59925;52.136;5.420;2023-09-18T02:22:04;15.63;;;11.87;;
72060;SDS011;59925;52.136;5.420;2023-09-18T02:24:31;16.00;;;11.70;;
72060;SDS011;59925;52.136;5.420;2023-09-18T02:26:57;14.63;;;11.05;;
72060;SDS011;59925;52.136;5.420;2023-09-18T02:29:24;17.52;;;12.10;;
72060;SDS011;59925;52.136;5.420;2023-09-18T02:31:51;16.30;;;11.70;;
72060;SDS011;59925;52.136;5.420;2023-09-18T02:34:17;16.30;;;10.87;;
72060;SDS011;59925;52.136;5.420;2023-09-18T02:36:45;17.95;;;12.18;;
72060;SDS011;59925;52.136;5.420;2023-09-18T02:39:12;15.07;;;10.35;;
72060;SDS011;59925;52.136;5.420;2023-09-18T02:41:38;15.57;;;11.15;;
72060;SDS011;59925;52.136;5.420;2023-09-18T02:44:05;15.55;;;10.90;;
72060;SDS011;59925;52.136;5.420;2023-09-18T02:46:32;16.17;;;11.00;;
72060;SDS011;59925;52.136;5.420;2023-09-18T02:48:58;14.10;;;11.05;;
72060;SDS011;59925;52.136;5.420;2023-09-18T02:51:25;17.33;;;11.35;;
72060;SDS011;59925;52.136;5.420;2023-09-18T02:53:51;14.75;;;11.05;;
72060;SDS011;59925;52.136;5.420;2023-09-18T02:56:18;17.05;;;11.98;;
72060;SDS011;59925;52.136;5.420;2023-09-18T02:58:44;16.43;;;11.73;;
72060;SDS011;59925;52.136;5.420;2023-09-18T03:01:11;18.15;;;12.05;;
72060;SDS011;59925;52.136;5.420;2023-09-18T03:03:37;16.92;;;10.85;;
72060;SDS011;59925;52.136;5.420;2023-09-18T03:06:04;15.65;;;10.90;;
72060;SDS011;59925;52.136;5.420;2023-09-18T03:08:33;13.07;;;10.45;;
72060;SDS011;59925;52.136;5.420;2023-09-18T03:10:59;15.07;;;10.73;;
72060;SDS011;59925;52.136;5.420;2023-09-18T03:13:27;17.05;;;11.65;;
72060;SDS011;59925;52.136;5.420;2023-09-18T03:15:54;15.57;;;11.55;;
72060;SDS011;59925;52.136;5.420;2023-09-18T03:18:22;16.25;;;12.35;;
72060;SDS011;59925;52.136;5.420;2023-09-18T03:20:49;18.42;;;12.48;;
72060;SDS011;59925;52.136;5.420;2023-09-18T03:23:16;16.50;;;11.67;;
72060;SDS011;59925;52.136;5.420;2023-09-18T03:25:42;18.20;;;13.27;;
72060;SDS011;59925;52.136;5.420;2023-09-18T03:28:16;17.80;;;12.15;;
72060;SDS011;59925;52.136;5.420;2023-09-18T03:30:43;16.50;;;11.73;;
72060;SDS011;59925;52.136;5.420;2023-09-18T03:33:09;16.80;;;12.82;;
72060;SDS011;59925;52.136;5.420;2023-09-18T03:35:49;12.47;;;10.33;;
72060;SDS011;59925;52.136;5.420;2023-09-18T03:38:17;13.75;;;10.02;;
72060;SDS011;59925;52.136;5.420;2023-09-18T03:40:44;15.57;;;11.50;;
72060;SDS011;59925;52.136;5.420;2023-09-18T03:43:10;16.20;;;11.57;;
72060;SDS011;59925;52.136;5.420;2023-09-18T03:45:38;15.80;;;11.48;;
72060;SDS011;59925;52.136;5.420;2023-09-18T03:48:08;24.50;;;13.53;;
72060;SDS011;59925;52.136;5.420;2023-09-18T03:50:35;16.67;;;12.07;;
72060;SDS011;59925;52.136;5.420;2023-09-18T03:53:02;18.40;;;12.43;;
72060;SDS011;59925;52.136;5.420;2023-09-18T03:55:29;19.95;;;12.80;;
72060;SDS011;59925;52.136;5.420;2023-09-18T03:57:56;19.42;;;14.32;;
72060;SDS011;59925;52.136;5.420;2023-09-18T04:00:22;18.30;;;11.93;;
72060;SDS011;59925;52.136;5.420;2023-09-18T04:02:49;16.67;;;12.40;;
72060;SDS011;59925;52.136;5.420;2023-09-18T04:05:16;21.58;;;13.90;;
72060;SDS011;59925;52.136;5.420;2023-09-18T04:07:42;17.40;;;11.68;;
72060;SDS011;59925;52.136;5.420;2023-09-18T04:10:13;18.67;;;13.15;;
72060;SDS011;59925;52.136;5.420;2023-09-18T04:12:45;24.80;;;14.37;;
72060;SDS011;59925;52.136;5.420;2023-09-18T04:15:15;17.95;;;13.00;;
72060;SDS011;59925;52.136;5.420;2023-09-18T04:17:43;19.63;;;13.88;;
72060;SDS011;59925;52.136;5.420;2023-09-18T04:20:10;20.38;;;13.05;;
72060;SDS011;59925;52.136;5.420;2023-09-18T04:22:41;18.40;;;13.05;;
72060;SDS011;59925;52.136;5.420;2023-09-18T04:25:10;19.63;;;13.47;;
72060;SDS011;59925;52.136;5.420;2023-09-18T04:27:37;19.45;;;12.60;;
72060;SDS011;59925;52.136;5.420;2023-09-18T04:30:03;18.52;;;12.60;;
72060;SDS011;59925;52.136;5.420;2023-09-18T04:32:31;19.70;;;12.48;;
72060;SDS011;59925;52.136;5.420;2023-09-18T04:34:57;20.27;;;12.60;;
72060;SDS011;59925;52.136;5.420;2023-09-18T04:37:24;19.63;;;12.27;;
72060;SDS011;59925;52.136;5.420;2023-09-18T04:39:51;17.73;;;12.73;;
72060;SDS011;59925;52.136;5.420;2023-09-18T04:42:17;18.00;;;11.70;;
72060;SDS011;59925;52.136;5.420;2023-09-18T04:44:44;17.13;;;11.98;;
72060;SDS011;59925;52.136;5.420;2023-09-18T04:47:11;19.02;;;10.93;;
72060;SDS011;59925;52.136;5.420;2023-09-18T04:49:38;21.60;;;11.37;;
72060;SDS011;59925;52.136;5.420;2023-09-18T04:52:04;17.95;;;11.80;;
72060;SDS011;59925;52.136;5.420;2023-09-18T04:54:31;16.00;;;10.95;;
72060;SDS011;59925;52.136;5.420;2023-09-18T04:56:58;16.23;;;11.27;;
72060;SDS011;59925;52.136;5.420;2023-09-18T04:59:25;15.30;;;11.32;;
72060;SDS011;59925;52.136;5.420;2023-09-18T05:01:51;21.37;;;12.97;;
72060;SDS011;59925;52.136;5.420;2023-09-18T05:04:18;20.58;;;11.90;;
72060;SDS011;59925;52.136;5.420;2023-09-18T05:06:44;24.20;;;13.40;;
72060;SDS011;59925;52.136;5.420;2023-09-18T05:09:11;23.33;;;13.02;;
72060;SDS011;59925;52.136;5.420;2023-09-18T05:11:37;22.83;;;12.30;;
72060;SDS011;59925;52.136;5.420;2023-09-18T05:14:04;18.97;;;11.63;;
72060;SDS011;59925;52.136;5.420;2023-09-18T05:16:32;19.15;;;10.65;;
72060;SDS011;59925;52.136;5.420;2023-09-18T05:19:01;13.63;;;8.82;;
72060;SDS011;59925;52.136;5.420;2023-09-18T05:21:28;15.60;;;7.88;;
72060;SDS011;59925;52.136;5.420;2023-09-18T05:23:56;13.57;;;8.45;;
72060;SDS011;59925;52.136;5.420;2023-09-18T05:26:22;12.17;;;6.33;;
72060;SDS011;59925;52.136;5.420;2023-09-18T05:28:51;9.25;;;6.43;;
72060;SDS011;59925;52.136;5.420;2023-09-18T05:31:18;10.43;;;5.95;;
72060;SDS011;59925;52.136;5.420;2023-09-18T05:33:44;10.35;;;6.15;;
72060;SDS011;59925;52.136;5.420;2023-09-18T05:36:12;7.97;;;6.38;;
72060;SDS011;59925;52.136;5.420;2023-09-18T05:38:39;9.33;;;4.87;;
72060;SDS011;59925;52.136;5.420;2023-09-18T05:41:06;10.77;;;5.35;;
72060;SDS011;59925;52.136;5.420;2023-09-18T05:43:33;9.48;;;6.13;;
72060;SDS011;59925;52.136;5.420;2023-09-18T05:45:59;9.15;;;5.45;;
72060;SDS011;59925;52.136;5.420;2023-09-18T05:48:26;7.78;;;5.65;;
72060;SDS011;59925;52.136;5.420;2023-09-18T05:50:52;7.63;;;5.30;;
72060;SDS011;59925;52.136;5.420;2023-09-18T05:53:20;7.72;;;5.03;;
72060;SDS011;59925;52.136;5.420;2023-09-18T05:55:47;11.57;;;5.72;;
72060;SDS011;59925;52.136;5.420;2023-09-18T05:58:13;7.97;;;5.63;;
72060;SDS011;59925;52.136;5.420;2023-09-18T06:00:40;7.00;;;5.03;;
72060;SDS011;59925;52.136;5.420;2023-09-18T06:03:06;9.07;;;4.93;;
72060;SDS011;59925;52.136;5.420;2023-09-18T06:05:33;9.55;;;5.47;;
72060;SDS011;59925;52.136;5.420;2023-09-18T06:08:01;9.20;;;5.85;;
72060;SDS011;59925;52.136;5.420;2023-09-18T06:10:27;12.48;;;5.25;;
72060;SDS011;59925;52.136;5.420;2023-09-18T06:12:54;10.45;;;6.03;;
72060;SDS011;59925;52.136;5.420;2023-09-18T06:15:21;8.23;;;5.53;;
72060;SDS011;59925;52.136;5.420;2023-09-18T06:17:47;10.55;;;6.35;;
72060;SDS011;59925;52.136;5.420;2023-09-18T06:20:14;11.27;;;6.50;;
72060;SDS011;59925;52.136;5.420;2023-09-18T06:22:42;11.63;;;7.70;;
72060;SDS011;59925;52.136;5.420;2023-09-18T06:25:09;9.35;;;6.90;;
72060;SDS011;59925;52.136;5.420;2023-09-18T06:27:37;9.33;;;6.77;;
72060;SDS011;59925;52.136;5.420;2023-09-18T06:30:04;11.55;;;7.30;;
72060;SDS011;59925;52.136;5.420;2023-09-18T06:32:32;10.07;;;7.75;;
72060;SDS011;59925;52.136;5.420;2023-09-18T06:34:59;12.25;;;7.22;;
72060;SDS011;59925;52.136;5.420;2023-09-18T06:37:26;11.10;;;6.93;;
72060;SDS011;59925;52.136;5.420;2023-09-18T06:39:53;12.37;;;7.17;;
72060;SDS011;59925;52.136;5.420;2023-09-18T06:42:19;10.80;;;7.75;;
72060;SDS011;59925;52.136;5.420;2023-09-18T06:44:46;10.63;;;6.68;;
72060;SDS011;59925;52.136;5.420;2023-09-18T06:47:13;11.27;;;7.20;;
72060;SDS011;59925;52.136;5.420;2023-09-18T06:49:41;10.88;;;7.15;;
72060;SDS011;59925;52.136;5.420;2023-09-18T06:52:10;11.60;;;7.60;;
72060;SDS011;59925;52.136;5.420;2023-09-18T06:54:39;16.20;;;7.38;;
72060;SDS011;59925;52.136;5.420;2023-09-18T06:57:05;11.07;;;7.60;;
72060;SDS011;59925;52.136;5.420;2023-09-18T06:59:32;10.30;;;7.53;;
72060;SDS011;59925;52.136;5.420;2023-09-18T07:02:00;11.30;;;7.45;;
72060;SDS011;59925;52.136;5.420;2023-09-18T07:04:28;15.67;;;8.27;;
72060;SDS011;59925;52.136;5.420;2023-09-18T07:06:54;15.43;;;8.30;;
72060;SDS011;59925;52.136;5.420;2023-09-18T07:09:22;15.00;;;7.60;;
72060;SDS011;59925;52.136;5.420;2023-09-18T07:11:49;13.63;;;8.68;;
72060;SDS011;59925;52.136;5.420;2023-09-18T07:14:17;13.88;;;8.07;;
72060;SDS011;59925;52.136;5.420;2023-09-18T07:16:43;15.60;;;8.40;;
72060;SDS011;59925;52.136;5.420;2023-09-18T07:19:10;15.45;;;8.68;;
72060;SDS011;59925;52.136;5.420;2023-09-18T07:21:38;13.35;;;7.93;;
72060;SDS011;59925;52.136;5.420;2023-09-18T07:24:06;12.65;;;7.93;;
72060;SDS011;59925;52.136;5.420;2023-09-18T07:26:33;11.13;;;8.00;;
72060;SDS011;59925;52.136;5.420;2023-09-18T07:29:00;12.83;;;8.27;;
72060;SDS011;59925;52.136;5.420;2023-09-18T07:31:28;14.70;;;8.50;;
72060;SDS011;59925;52.136;5.420;2023-09-18T07:33:54;18.15;;;9.45;;
72060;SDS011;59925;52.136;5.420;2023-09-18T07:36:21;18.23;;;8.98;;
72060;SDS011;59925;52.136;5.420;2023-09-18T07:38:48;11.52;;;7.90;;
72060;SDS011;59925;52.136;5.420;2023-09-18T07:41:14;10.33;;;8.23;;
72060;SDS011;59925;52.136;5.420;2023-09-18T07:43:41;11.02;;;7.78;;
72060;SDS011;59925;52.136;5.420;2023-09-18T07:46:08;11.00;;;7.85;;
72060;SDS011;59925;52.136;5.420;2023-09-18T07:48:35;9.80;;;7.47;;
72060;SDS011;59925;52.136;5.420;2023-09-18T07:51:01;11.68;;;7.78;;
72060;SDS011;59925;52.136;5.420;2023-09-18T07:53:28;12.80;;;7.37;;
72060;SDS011;59925;52.136;5.420;2023-09-18T07:55:55;8.93;;;7.13;;
72060;SDS011;59925;52.136;5.420;2023-09-18T07:58:23;8.25;;;6.38;;
72060;SDS011;59925;52.136;5.420;2023-09-18T08:00:50;11.05;;;6.65;;
72060;SDS011;59925;52.136;5.420;2023-09-18T08:03:20;10.55;;;6.13;;
72060;SDS011;59925;52.136;5.420;2023-09-18T08:05:52;8.77;;;6.27;;
72060;SDS011;59925;52.136;5.420;2023-09-18T08:08:20;9.20;;;6.00;;
72060;SDS011;59925;52.136;5.420;2023-09-18T08:10:48;7.88;;;5.70;;
72060;SDS011;59925;52.136;5.420;2023-09-18T08:13:15;9.75;;;5.43;;
72060;SDS011;59925;52.136;5.420;2023-09-18T08:15:42;7.15;;;5.18;;
72060;SDS011;59925;52.136;5.420;2023-09-18T08:18:10;7.50;;;4.83;;
72060;SDS011;59925;52.136;5.420;2023-09-18T08:20:43;7.47;;;4.35;;
72060;SDS011;59925;52.136;5.420;2023-09-18T08:23:10;7.35;;;4.53;;
72060;SDS011;59925;52.136;5.420;2023-09-18T08:25:37;5.93;;;4.25;;
72060;SDS011;59925;52.136;5.420;2023-09-18T08:28:06;7.65;;;4.35;;
72060;SDS011;59925;52.136;5.420;2023-09-18T08:30:35;5.70;;;4.40;;
72060;SDS011;59925;52.136;5.420;2023-09-18T08:33:03;6.90;;;3.92;;
72060;SDS011;59925;52.136;5.420;2023-09-18T08:35:31;7.32;;;4.63;;
72060;SDS011;59925;52.136;5.420;2023-09-18T08:37:58;6.93;;;3.80;;
72060;SDS011;59925;52.136;5.420;2023-09-18T08:40:25;6.18;;;4.00;;
72060;SDS011;59925;52.136;5.420;2023-09-18T08:42:52;7.83;;;4.10;;
72060;SDS011;59925;52.136;5.420;2023-09-18T08:45:41;5.38;;;3.72;;
72060;SDS011;59925;52.136;5.420;2023-09-18T08:48:12;10.10;;;4.00;;
72060;SDS011;59925;52.136;5.420;2023-09-18T08:50:39;5.20;;;3.72;;
72060;SDS011;59925;52.136;5.420;2023-09-18T08:53:08;7.38;;;3.85;;
72060;SDS011;59925;52.136;5.420;2023-09-18T08:55:35;5.73;;;4.00;;
72060;SDS011;59925;52.136;5.420;2023-09-18T08:58:01;5.97;;;3.78;;
72060;SDS011;59925;52.136;5.420;2023-09-18T09:00:28;7.05;;;3.70;;
72060;SDS011;59925;52.136;5.420;2023-09-18T09:02:55;6.45;;;4.03;;
72060;SDS011;59925;52.136;5.420;2023-09-18T09:05:22;5.70;;;3.15;;
72060;SDS011;59925;52.136;5.420;2023-09-18T09:07:49;5.40;;;3.37;;
72060;SDS011;59925;52.136;5.420;2023-09-18T09:10:17;5.97;;;3.40;;
72060;SDS011;59925;52.136;5.420;2023-09-18T09:15:13;5.43;;;3.30;;
72060;SDS011;59925;52.136;5.420;2023-09-18T09:17:40;6.57;;;3.20;;
72060;SDS011;59925;52.136;5.420;2023-09-18T09:20:14;6.87;;;3.27;;
72060;SDS011;59925;52.136;5.420;2023-09-18T09:22:41;5.07;;;3.67;;
72060;SDS011;59925;52.136;5.420;2023-09-18T09:27:47;5.75;;;3.28;;
72060;SDS011;59925;52.136;5.420;2023-09-18T09:30:21;4.38;;;2.90;;
72060;SDS011;59925;52.136;5.420;2023-09-18T09:32:53;3.97;;;2.77;;
72060;SDS011;59925;52.136;5.420;2023-09-18T09:35:23;5.78;;;2.72;;
72060;SDS011;59925;52.136;5.420;2023-09-18T09:37:50;4.32;;;2.75;;
72060;SDS011;59925;52.136;5.420;2023-09-18T09:40:20;3.47;;;2.45;;
72060;SDS011;59925;52.136;5.420;2023-09-18T09:42:47;6.53;;;2.80;;
72060;SDS011;59925;52.136;5.420;2023-09-18T09:45:14;5.57;;;2.83;;
72060;SDS011;59925;52.136;5.420;2023-09-18T09:47:42;4.15;;;2.88;;
72060;SDS011;59925;52.136;5.420;2023-09-18T09:50:14;3.33;;;2.70;;
72060;SDS011;59925;52.136;5.420;2023-09-18T09:52:48;3.40;;;2.65;;
72060;SDS011;59925;52.136;5.420;2023-09-18T09:57:57;5.13;;;4.50;;
72060;SDS011;59925;52.136;5.420;2023-09-18T10:03:00;5.95;;;3.90;;
72060;SDS011;59925;52.136;5.420;2023-09-18T10:05:29;5.00;;;3.55;;
72060;SDS011;59925;52.136;5.420;2023-09-18T10:07:58;4.57;;;4.18;;
72060;SDS011;59925;52.136;5.420;2023-09-18T10:10:27;4.90;;;4.00;;
72060;SDS011;59925;52.136;5.420;2023-09-18T10:12:59;5.38;;;4.25;;
72060;SDS011;59925;52.136;5.420;2023-09-18T10:15:28;5.32;;;4.70;;
72060;SDS011;59925;52.136;5.420;2023-09-18T10:17:59;4.50;;;4.10;;
72060;SDS011;59925;52.136;5.420;2023-09-18T10:20:28;5.45;;;4.35;;
72060;SDS011;59925;52.136;5.420;2023-09-18T10:22:56;5.10;;;4.43;;
72060;SDS011;59925;52.136;5.420;2023-09-18T10:25:28;4.57;;;3.70;;
72060;SDS011;59925;52.136;5.420;2023-09-18T10:27:57;6.68;;;4.50;;
72060;SDS011;59925;52.136;5.420;2023-09-18T10:30:27;4.80;;;3.33;;
72060;SDS011;59925;52.136;5.420;2023-09-18T10:32:56;4.82;;;3.85;;
72060;SDS011;59925;52.136;5.420;2023-09-18T10:35:24;6.63;;;4.50;;
72060;SDS011;59925;52.136;5.420;2023-09-18T10:37:51;4.63;;;4.07;;
72060;SDS011;59925;52.136;5.420;2023-09-18T10:40:21;6.05;;;4.65;;
72060;SDS011;59925;52.136;5.420;2023-09-18T10:42:48;4.72;;;4.32;;
72060;SDS011;59925;52.136;5.420;2023-09-18T10:45:17;5.75;;;5.15;;
72060;SDS011;59925;52.136;5.420;2023-09-18T10:47:43;6.00;;;5.50;;
72060;SDS011;59925;52.136;5.420;2023-09-18T10:50:15;6.22;;;5.63;;
72060;SDS011;59925;52.136;5.420;2023-09-18T10:52:49;5.78;;;4.80;;
72060;SDS011;59925;52.136;5.420;2023-09-18T10:55:16;6.53;;;5.40;;
72060;SDS011;59925;52.136;5.420;2023-09-18T10:57:49;7.68;;;5.38;;
72060;SDS011;59925;52.136;5.420;2023-09-18T11:00:26;6.33;;;5.73;;
72060;SDS011;59925;52.136;5.420;2023-09-18T11:03:08;6.10;;;5.55;;
72060;SDS011;59925;52.136;5.420;2023-09-18T11:05:44;6.05;;;5.55;;
72060;SDS011;59925;52.136;5.420;2023-09-18T11:08:25;5.88;;;5.28;;
72060;SDS011;59925;52.136;5.420;2023-09-18T11:11:07;9.40;;;5.32;;
72060;SDS011;59925;52.136;5.420;2023-09-18T11:13:50;6.83;;;4.97;;
72060;SDS011;59925;52.136;5.420;2023-09-18T11:21:32;7.00;;;4.57;;
72060;SDS011;59925;52.136;5.420;2023-09-18T11:26:35;7.03;;;4.20;;
72060;SDS011;59925;52.136;5.420;2023-09-18T11:29:06;4.47;;;4.00;;
72060;SDS011;59925;52.136;5.420;2023-09-18T11:31:54;5.68;;;3.30;;
72060;SDS011;59925;52.136;5.420;2023-09-18T11:34:26;5.10;;;3.67;;
72060;SDS011;59925;52.136;5.420;2023-09-18T11:36:55;3.78;;;3.15;;
72060;SDS011;59925;52.136;5.420;2023-09-18T11:39:38;4.83;;;3.67;;
72060;SDS011;59925;52.136;5.420;2023-09-18T11:42:07;8.10;;;3.67;;
72060;SDS011;59925;52.136;5.420;2023-09-18T11:44:43;5.80;;;3.58;;
72060;SDS011;59925;52.136;5.420;2023-09-18T11:47:16;4.13;;;3.28;;
72060;SDS011;59925;52.136;5.420;2023-09-18T11:49:47;3.97;;;3.30;;
72060;SDS011;59925;52.136;5.420;2023-09-18T11:52:22;5.03;;;3.40;;
72060;SDS011;59925;52.136;5.420;2023-09-18T11:54:48;6.28;;;4.70;;
72060;SDS011;59925;52.136;5.420;2023-09-18T11:57:17;7.80;;;4.97;;
72060;SDS011;59925;52.136;5.420;2023-09-18T11:59:46;6.25;;;5.25;;
72060;SDS011;59925;52.136;5.420;2023-09-18T12:02:13;7.53;;;5.50;;
72060;SDS011;59925;52.136;5.420;2023-09-18T12:04:54;7.13;;;4.93;;
72060;SDS011;59925;52.136;5.420;2023-09-18T12:07:21;6.57;;;4.95;;
72060;SDS011;59925;52.136;5.420;2023-09-18T12:09:48;5.10;;;4.13;;
72060;SDS011;59925;52.136;5.420;2023-09-18T12:12:16;7.18;;;4.22;;
72060;SDS011;59925;52.136;5.420;2023-09-18T12:14:44;5.65;;;4.10;;
72060;SDS011;59925;52.136;5.420;2023-09-18T12:17:15;6.00;;;3.80;;
72060;SDS011;59925;52.136;5.420;2023-09-18T12:19:52;6.07;;;4.13;;
72060;SDS011;59925;52.136;5.420;2023-09-18T12:22:23;5.03;;;3.83;;
72060;SDS011;59925;52.136;5.420;2023-09-18T12:24:51;6.35;;;4.00;;
72060;SDS011;59925;52.136;5.420;2023-09-18T12:27:18;6.63;;;3.78;;
72060;SDS011;59925;52.136;5.420;2023-09-18T12:29:45;5.07;;;3.87;;
72060;SDS011;59925;52.136;5.420;2023-09-18T12:32:12;5.82;;;3.53;;
72060;SDS011;59925;52.136;5.420;2023-09-18T12:34:42;3.72;;;2.83;;
72060;SDS011;59925;52.136;5.420;2023-09-18T12:37:09;3.83;;;3.10;;
72060;SDS011;59925;52.136;5.420;2023-09-18T12:39:38;4.28;;;2.80;;
72060;SDS011;59925;52.136;5.420;2023-09-18T12:42:05;5.50;;;3.27;;
72060;SDS011;59925;52.136;5.420;2023-09-18T12:44:32;6.35;;;3.72;;
72060;SDS011;59925;52.136;5.420;2023-09-18T12:46:59;4.85;;;2.88;;
72060;SDS011;59925;52.136;5.420;2023-09-18T12:49:29;5.18;;;3.17;;
72060;SDS011;59925;52.136;5.420;2023-09-18T12:51:58;5.85;;;3.22;;
72060;SDS011;59925;52.136;5.420;2023-09-18T12:54:42;4.10;;;3.27;;
72060;SDS011;59925;52.136;5.420;2023-09-18T12:57:14;3.65;;;3.10;;
72060;SDS011;59925;52.136;5.420;2023-09-18T12:59:42;5.03;;;3.38;;
72060;SDS011;59925;52.136;5.420;2023-09-18T13:02:09;4.47;;;3.30;;
72060;SDS011;59925;52.136;5.420;2023-09-18T13:04:39;4.07;;;3.30;;
72060;SDS011;59925;52.136;5.420;2023-09-18T13:07:11;7.30;;;4.00;;
72060;SDS011;59925;52.136;5.420;2023-09-18T13:09:39;4.13;;;3.17;;
72060;SDS011;59925;52.136;5.420;2023-09-18T13:12:07;3.75;;;3.22;;
72060;SDS011;59925;52.136;5.420;2023-09-18T13:17:44;6.45;;;3.33;;
72060;SDS011;59925;52.136;5.420;2023-09-18T13:22:42;5.28;;;3.20;;
72060;SDS011;59925;52.136;5.420;2023-09-18T13:25:18;6.18;;;3.10;;
72060;SDS011;59925;52.136;5.420;2023-09-18T13:27:52;6.82;;;2.95;;
72060;SDS011;59925;52.136;5.420;2023-09-18T13:30:20;4.05;;;2.83;;
72060;SDS011;59925;52.136;5.420;2023-09-18T13:32:48;3.93;;;3.00;;
72060;SDS011;59925;52.136;5.420;2023-09-18T13:35:17;7.85;;;3.78;;
72060;SDS011;59925;52.136;5.420;2023-09-18T13:37:44;4.95;;;2.67;;
72060;SDS011;59925;52.136;5.420;2023-09-18T13:40:11;5.68;;;2.85;;
72060;SDS011;59925;52.136;5.420;2023-09-18T13:42:38;4.75;;;2.83;;
72060;SDS011;59925;52.136;5.420;2023-09-18T13:45:05;3.10;;;2.30;;
72060;SDS011;59925;52.136;5.420;2023-09-18T13:47:32;3.38;;;2.40;;
72060;SDS011;59925;52.136;5.420;2023-09-18T13:50:04;4.45;;;2.38;;
72060;SDS011;59925;52.136;5.420;2023-09-18T13:52:34;4.53;;;2.33;;
72060;SDS011;59925;52.136;5.420;2023-09-18T13:55:02;3.60;;;2.20;;
72060;SDS011;59925;52.136;5.420;2023-09-18T13:57:32;3.30;;;2.20;;
72060;SDS011;59925;52.136;5.420;2023-09-18T13:59:59;4.00;;;1.88;;
72060;SDS011;59925;52.136;5.420;2023-09-18T14:02:27;4.25;;;1.83;;
72060;SDS011;59925;52.136;5.420;2023-09-18T14:04:54;3.05;;;1.63;;
72060;SDS011;59925;52.136;5.420;2023-09-18T14:07:21;3.10;;;1.80;;
72060;SDS011;59925;52.136;5.420;2023-09-18T14:09:48;3.03;;;1.63;;
72060;SDS011;59925;52.136;5.420;2023-09-18T14:12:15;3.53;;;1.90;;
72060;SDS011;59925;52.136;5.420;2023-09-18T14:14:41;3.22;;;1.80;;
72060;SDS011;59925;52.136;5.420;2023-09-18T14:17:08;3.17;;;2.00;;
72060;SDS011;59925;52.136;5.420;2023-09-18T14:19:38;2.58;;;1.50;;
72060;SDS011;59925;52.136;5.420;2023-09-18T14:22:05;3.20;;;1.33;;
72060;SDS011;59925;52.136;5.420;2023-09-18T14:24:32;3.53;;;1.60;;
72060;SDS011;59925;52.136;5.420;2023-09-18T14:27:00;3.20;;;1.45;;
72060;SDS011;59925;52.136;5.420;2023-09-18T14:29:28;2.40;;;1.58;;
72060;SDS011;59925;52.136;5.420;2023-09-18T14:32:00;2.95;;;1.50;;
72060;SDS011;59925;52.136;5.420;2023-09-18T14:34:26;2.83;;;1.80;;
72060;SDS011;59925;52.136;5.420;2023-09-18T14:36:53;7.63;;;2.10;;
72060;SDS011;59925;52.136;5.420;2023-09-18T14:39:20;3.63;;;1.45;;
72060;SDS011;59925;52.136;5.420;2023-09-18T14:41:46;4.45;;;2.25;;
72060;SDS011;59925;52.136;5.420;2023-09-18T14:44:14;3.83;;;1.50;;
72060;SDS011;59925;52.136;5.420;2023-09-18T14:46:41;3.20;;;1.73;;
72060;SDS011;59925;52.136;5.420;2023-09-18T14:49:09;2.33;;;1.67;;
72060;SDS011;59925;52.136;5.420;2023-09-18T14:51:35;2.33;;;1.88;;
72060;SDS011;59925;52.136;5.420;2023-09-18T14:54:02;2.63;;;1.70;;
72060;SDS011;59925;52.136;5.420;2023-09-18T14:56:31;2.78;;;1.65;;
72060;SDS011;59925;52.136;5.420;2023-09-18T14:58:58;3.40;;;1.50;;
72060;SDS011;59925;52.136;5.420;2023-09-18T15:01:25;3.65;;;1.70;;
72060;SDS011;59925;52.136;5.420;2023-09-18T15:03:51;2.92;;;1.65;;
72060;SDS011;59925;52.136;5.420;2023-09-18T15:06:18;2.55;;;1.55;;
72060;SDS011;59925;52.136;5.420;2023-09-18T15:08:45;2.47;;;1.67;;
72060;SDS011;59925;52.136;5.420;2023-09-18T15:11:12;2.07;;;1.70;;